Time;durP1;ratioP1;P1;durP2;ratioP2;P2;SDS_P1;SDS_P2;PMS_P1;PMS_P2;Temp;Humidity;BMP_temperature;BMP_pressure;BME280_temperature;BME280_humidity;BME280_pressure;Samples;Min_cycle;Max_cycle;Signal;HPM_P1;HPM_P2
2021/10/26 00:00:14;;;;;;;16.92;9.52;;;13.10;97.80;;;;;;5012504;28;20022;-77
2021/10/26 00:02:41;;;;;;;13.80;8.20;;;13.10;97.80;;;;;;5011793;28;20025;-77
2021/10/26 00:05:07;;;;;;;16.35;8.50;;;13.10;97.80;;;;;;5012562;28;20048;-77
2021/10/26 00:07:33;;;;;;;17.83;9.43;;;13.10;97.80;;;;;;5012578;28;20021;-77
2021/10/26 00:09:58;;;;;;;17.05;9.55;;;13.10;97.80;;;;;;5010413;28;20097;-76
2021/10/26 00:12:24;;;;;;;14.93;9.40;;;13.10;97.80;;;;;;5012196;28;20018;-76
2021/10/26 00:14:51;;;;;;;19.52;10.55;;;13.10;97.80;;;;;;5014077;28;20410;-77
2021/10/26 00:17:17;;;;;;;15.30;9.30;;;13.10;97.80;;;;;;5016311;28;20025;-78
2021/10/26 00:19:43;;;;;;;17.77;8.85;;;13.20;97.80;;;;;;5015651;28;20022;-77
2021/10/26 00:22:09;;;;;;;16.58;9.05;;;13.10;97.80;;;;;;5016136;28;20026;-77
2021/10/26 00:24:35;;;;;;;16.92;9.07;;;13.10;97.80;;;;;;5014732;28;20032;-78
2021/10/26 00:27:01;;;;;;;15.10;8.15;;;13.20;97.80;;;;;;5014235;28;20020;-78
2021/10/26 00:29:27;;;;;;;16.35;8.70;;;13.10;97.80;;;;;;5014911;28;20092;-76
2021/10/26 00:31:54;;;;;;;14.07;7.60;;;13.10;97.80;;;;;;5015436;28;20036;-76
2021/10/26 00:34:21;;;;;;;13.90;7.18;;;13.20;97.80;;;;;;5016080;28;20030;-76
2021/10/26 00:36:46;;;;;;;17.05;8.75;;;13.20;97.80;;;;;;5015260;28;20393;-76
2021/10/26 00:39:12;;;;;;;16.15;8.75;;;13.20;97.80;;;;;;5030864;28;20095;-77
2021/10/26 00:41:39;;;;;;;17.48;9.32;;;13.20;97.90;;;;;;5016024;28;20442;-77
2021/10/26 00:44:05;;;;;;;15.35;8.18;;;13.20;97.80;;;;;;5015531;28;20053;-77
2021/10/26 00:46:37;;;;;;;14.68;7.63;;;13.20;97.80;;;;;;5015758;28;20073;-77
2021/10/26 00:49:09;;;;;;;18.92;10.80;;;13.20;97.80;;;;;;5013484;28;20096;-77
2021/10/26 00:51:35;;;;;;;17.58;9.98;;;13.10;97.80;;;;;;5015534;28;20076;-77
2021/10/26 00:54:02;;;;;;;16.23;8.65;;;13.10;97.80;;;;;;5015092;28;20508;-77
2021/10/26 00:56:28;;;;;;;15.57;8.65;;;13.20;97.90;;;;;;5014299;28;20025;-77
2021/10/26 00:58:54;;;;;;;19.73;10.15;;;13.10;97.80;;;;;;5013561;28;20048;-77
2021/10/26 01:01:19;;;;;;;16.70;9.07;;;13.10;97.80;;;;;;5015477;28;20035;-78
2021/10/26 01:03:45;;;;;;;20.48;9.90;;;13.10;97.90;;;;;;5013514;28;20034;-77
2021/10/26 01:06:11;;;;;;;16.35;9.23;;;13.20;97.90;;;;;;5015759;28;20025;-77
2021/10/26 01:08:40;;;;;;;14.57;7.68;;;13.20;97.90;;;;;;5015022;28;20050;-77
2021/10/26 01:11:06;;;;;;;16.63;9.82;;;13.20;97.90;;;;;;5015204;28;20045;-77
2021/10/26 01:13:33;;;;;;;17.88;10.35;;;13.10;97.90;;;;;;5015269;28;20025;-77
2021/10/26 01:15:59;;;;;;;22.83;11.35;;;13.10;97.90;;;;;;5013317;28;20362;-77
2021/10/26 01:18:25;;;;;;;19.95;9.13;;;13.10;97.90;;;;;;5013874;28;20057;-77
2021/10/26 01:20:52;;;;;;;20.63;10.35;;;13.10;97.90;;;;;;5013256;28;20021;-77
2021/10/26 01:23:18;;;;;;;20.65;10.40;;;13.10;97.90;;;;;;5014995;28;20026;-77
2021/10/26 01:25:44;;;;;;;20.60;10.73;;;13.10;97.90;;;;;;5014647;28;20048;-77
2021/10/26 01:28:10;;;;;;;18.75;10.25;;;13.10;97.90;;;;;;5015073;28;20014;-77
2021/10/26 01:30:36;;;;;;;21.40;10.45;;;13.20;97.90;;;;;;5014902;28;20538;-77
2021/10/26 01:33:03;;;;;;;21.40;9.60;;;13.20;97.90;;;;;;5013051;28;20389;-77
2021/10/26 01:35:29;;;;;;;26.08;11.80;;;13.10;97.90;;;;;;5014398;28;20375;-77
2021/10/26 01:37:55;;;;;;;24.77;11.45;;;13.10;97.90;;;;;;5013718;28;20017;-77
2021/10/26 01:40:21;;;;;;;19.50;10.85;;;13.10;97.90;;;;;;5014589;28;20083;-77
2021/10/26 01:42:49;;;;;;;25.58;12.68;;;13.10;98.00;;;;;;5014025;28;20041;-77
2021/10/26 01:45:15;;;;;;;21.65;11.93;;;13.10;98.00;;;;;;5014534;28;20018;-76
2021/10/26 01:47:41;;;;;;;18.00;11.02;;;13.10;98.00;;;;;;5014537;28;20041;-77
2021/10/26 01:50:09;;;;;;;21.42;12.07;;;13.10;98.00;;;;;;5013932;28;20026;-77
2021/10/26 01:52:35;;;;;;;18.73;8.90;;;13.10;98.00;;;;;;5014302;28;20489;-77
2021/10/26 01:55:02;;;;;;;20.33;11.40;;;13.10;98.00;;;;;;5013828;28;20033;-77
2021/10/26 01:57:28;;;;;;;20.52;11.13;;;13.10;98.00;;;;;;5014755;28;20030;-77
2021/10/26 01:59:56;;;;;;;18.08;9.23;;;13.10;98.10;;;;;;5013754;28;20018;-76
2021/10/26 02:02:23;;;;;;;21.80;11.48;;;13.10;98.00;;;;;;5029446;28;20065;-76
2021/10/26 02:04:49;;;;;;;23.08;11.30;;;13.10;98.10;;;;;;5012460;28;20018;-76
2021/10/26 02:07:14;;;;;;;20.88;11.57;;;13.10;98.00;;;;;;5012633;28;20476;-76
2021/10/26 02:09:40;;;;;;;25.50;11.30;;;13.10;98.10;;;;;;5014069;28;20021;-76
2021/10/26 02:12:06;;;;;;;15.35;8.20;;;13.10;98.10;;;;;;5013215;28;20029;-76
2021/10/26 02:14:33;;;;;;;21.05;10.93;;;13.00;98.10;;;;;;5012819;28;20021;-76
2021/10/26 02:17:00;;;;;;;24.60;12.00;;;13.00;98.10;;;;;;5028583;28;20013;-77
2021/10/26 02:19:26;;;;;;;23.50;11.55;;;13.00;98.20;;;;;;5014039;28;20028;-78
2021/10/26 02:21:52;;;;;;;20.67;11.13;;;13.00;98.20;;;;;;5012998;28;20108;-75
2021/10/26 02:24:17;;;;;;;27.58;13.25;;;13.00;98.20;;;;;;5013865;28;20010;-76
2021/10/26 02:26:43;;;;;;;26.40;13.30;;;13.00;98.20;;;;;;5012555;28;20447;-76
2021/10/26 02:29:09;;;;;;;27.15;13.88;;;13.00;98.20;;;;;;5028380;28;20032;-76
2021/10/26 02:31:34;;;;;;;22.98;11.50;;;13.00;98.20;;;;;;5013920;28;20475;-77
2021/10/26 02:34:00;;;;;;;22.95;12.35;;;13.00;98.20;;;;;;5028394;28;20108;-77
2021/10/26 02:36:26;;;;;;;21.50;10.95;;;13.00;98.50;;;;;;5011768;28;20095;-78
2021/10/26 02:38:51;;;;;;;22.05;11.52;;;13.00;98.20;;;;;;5011558;28;20048;-77
2021/10/26 02:41:17;;;;;;;23.25;12.55;;;13.00;98.20;;;;;;5012388;28;20029;-77
2021/10/26 02:43:43;;;;;;;25.55;11.77;;;13.00;98.20;;;;;;5013548;28;20029;-76
2021/10/26 02:46:09;;;;;;;22.67;10.43;;;13.00;98.20;;;;;;5012762;28;20481;-76
2021/10/26 02:48:34;;;;;;;25.95;12.02;;;13.00;98.20;;;;;;5013456;28;20394;-77
2021/10/26 02:51:00;;;;;;;22.10;11.63;;;13.00;98.20;;;;;;5011433;28;20017;-77
2021/10/26 02:53:26;;;;;;;23.52;10.43;;;13.00;98.20;;;;;;5028875;28;20478;-78
2021/10/26 02:55:51;;;;;;;22.25;10.82;;;13.10;98.20;;;;;;5011166;28;20442;-77
2021/10/26 02:58:19;;;;;;;21.27;11.00;;;13.10;98.20;;;;;;5011964;28;20029;-78
2021/10/26 03:00:45;;;;;;;25.48;11.70;;;13.10;98.20;;;;;;5013200;28;20442;-78
2021/10/26 03:03:11;;;;;;;22.90;12.10;;;13.10;98.20;;;;;;5012506;28;20029;-77
2021/10/26 03:05:38;;;;;;;19.67;10.25;;;13.10;98.20;;;;;;5011773;28;20022;-76
2021/10/26 03:08:03;;;;;;;24.75;11.13;;;13.10;98.20;;;;;;5027741;28;20018;-76
2021/10/26 03:10:29;;;;;;;25.27;10.88;;;13.10;98.20;;;;;;5011642;28;20439;-75
2021/10/26 03:12:55;;;;;;;25.75;11.32;;;13.10;98.20;;;;;;5004213;28;20027;-77
2021/10/26 03:15:21;;;;;;;26.27;11.68;;;13.10;98.30;;;;;;5014208;28;20050;-77
2021/10/26 03:17:47;;;;;;;21.80;11.10;;;13.10;98.30;;;;;;4999723;28;20096;-77
2021/10/26 03:20:12;;;;;;;20.52;10.13;;;13.00;98.20;;;;;;5013513;28;20447;-78
2021/10/26 03:22:38;;;;;;;22.20;12.13;;;13.00;98.30;;;;;;4993015;28;20054;-78
2021/10/26 03:25:05;;;;;;;22.63;12.05;;;13.00;98.30;;;;;;5018433;28;20014;-78
2021/10/26 03:27:31;;;;;;;23.55;11.50;;;13.00;98.30;;;;;;4995145;28;20029;-78
2021/10/26 03:29:57;;;;;;;23.73;11.60;;;13.00;98.30;;;;;;5001805;28;20049;-77
2021/10/26 03:32:23;;;;;;;23.38;11.88;;;13.00;98.30;;;;;;4999792;28;20025;-77
2021/10/26 03:34:48;;;;;;;24.85;13.02;;;13.00;98.30;;;;;;5012208;28;20364;-77
2021/10/26 03:37:14;;;;;;;26.10;13.05;;;13.00;98.30;;;;;;5009520;28;20164;-78
2021/10/26 03:39:40;;;;;;;26.40;13.52;;;13.00;98.30;;;;;;5007560;28;20521;-77
2021/10/26 03:42:06;;;;;;;20.92;11.55;;;13.00;98.30;;;;;;5011777;28;20042;-77
2021/10/26 03:44:32;;;;;;;27.95;13.32;;;13.00;98.30;;;;;;5011152;28;20022;-77
2021/10/26 03:46:58;;;;;;;24.25;13.18;;;12.90;98.30;;;;;;5012092;28;20030;-78
2021/10/26 03:49:23;;;;;;;25.20;12.57;;;12.90;98.30;;;;;;5011567;28;20018;-78
2021/10/26 03:51:49;;;;;;;28.65;13.60;;;12.90;98.40;;;;;;5012491;28;20053;-78
2021/10/26 03:54:15;;;;;;;31.25;14.13;;;12.90;98.40;;;;;;5009691;28;20049;-77
2021/10/26 03:56:40;;;;;;;25.35;12.73;;;12.90;98.40;;;;;;5010093;28;20033;-78
2021/10/26 03:59:09;;;;;;;23.08;13.02;;;12.90;98.40;;;;;;5009869;28;20486;-81
2021/10/26 04:01:36;;;;;;;26.40;12.40;;;13.00;98.40;;;;;;5009962;28;20230;-78
2021/10/26 04:04:03;;;;;;;24.13;12.68;;;13.00;98.40;;;;;;5008190;28;20645;-78
2021/10/26 04:06:30;;;;;;;23.05;12.25;;;12.90;98.40;;;;;;5009598;28;20113;-78
2021/10/26 04:08:59;;;;;;;23.00;12.07;;;13.00;98.40;;;;;;5009027;28;20021;-79
2021/10/26 04:11:25;;;;;;;26.40;13.85;;;12.90;98.40;;;;;;5008597;28;20093;-78
2021/10/26 04:13:52;;;;;;;28.48;14.25;;;12.90;98.40;;;;;;5008464;28;20109;-78
2021/10/26 04:16:19;;;;;;;26.92;13.48;;;12.80;98.30;;;;;;5009494;28;20074;-79
2021/10/26 04:18:45;;;;;;;22.33;11.23;;;12.80;98.40;;;;;;5010051;28;20076;-78
2021/10/26 04:21:11;;;;;;;26.13;12.43;;;12.80;98.40;;;;;;5005123;28;20045;-79
2021/10/26 04:23:37;;;;;;;25.73;13.73;;;12.80;98.40;;;;;;5020265;28;20136;-79
2021/10/26 04:26:04;;;;;;;25.63;11.35;;;12.90;98.40;;;;;;5001469;28;20455;-79
2021/10/26 04:28:30;;;;;;;26.17;12.73;;;12.80;98.40;;;;;;5016780;28;20045;-79
2021/10/26 04:30:59;;;;;;;26.92;13.90;;;12.90;98.40;;;;;;4999827;28;20477;-81
2021/10/26 04:33:25;;;;;;;28.42;13.25;;;12.80;98.60;;;;;;5008002;28;20087;-80
2021/10/26 04:35:50;;;;;;;23.15;12.10;;;12.80;98.30;;;;;;4996385;28;20022;-74
2021/10/26 04:38:16;;;;;;;25.73;12.02;;;12.80;98.30;;;;;;5003876;28;20779;-74
2021/10/26 04:40:42;;;;;;;24.10;12.40;;;12.80;98.30;;;;;;4989908;28;20041;-74
2021/10/26 04:43:07;;;;;;;28.60;12.55;;;12.80;98.30;;;;;;4991208;28;20069;-74
2021/10/26 04:45:33;;;;;;;27.75;11.77;;;12.80;98.30;;;;;;4991999;28;20022;-75
2021/10/26 04:47:59;;;;;;;23.63;11.98;;;12.80;98.30;;;;;;4991613;28;20359;-74
2021/10/26 04:50:26;;;;;;;27.63;13.02;;;12.80;98.30;;;;;;4991974;28;20014;-74
2021/10/26 04:52:51;;;;;;;21.70;10.52;;;12.80;98.30;;;;;;5007170;28;20108;-73
2021/10/26 04:55:18;;;;;;;21.10;10.85;;;12.80;98.40;;;;;;4991389;28;20445;-76
2021/10/26 04:57:44;;;;;;;30.48;14.00;;;12.80;98.40;;;;;;5007198;28;20022;-75
2021/10/26 05:00:12;;;;;;;25.27;12.55;;;12.70;98.40;;;;;;5007764;28;20054;-73
2021/10/26 05:02:38;;;;;;;28.88;13.13;;;12.70;98.40;;;;;;5010708;28;20022;-75
2021/10/26 05:05:05;;;;;;;23.48;12.48;;;12.70;98.40;;;;;;5010205;28;20102;-75
2021/10/26 05:07:31;;;;;;;23.38;11.93;;;12.70;98.50;;;;;;4995565;28;20025;-75
2021/10/26 05:09:57;;;;;;;27.15;12.48;;;12.70;98.50;;;;;;4995390;28;20018;-74
2021/10/26 05:12:22;;;;;;;25.15;12.73;;;12.70;98.40;;;;;;4994944;28;20018;-74
2021/10/26 05:14:48;;;;;;;29.30;12.75;;;12.70;98.40;;;;;;5010466;28;20423;-74
2021/10/26 05:17:19;;;;;;;25.70;12.77;;;12.70;98.40;;;;;;4994793;28;20077;-74
2021/10/26 05:19:49;;;;;;;27.05;12.77;;;12.70;98.40;;;;;;4995537;28;20018;-73
2021/10/26 05:22:17;;;;;;;28.45;12.63;;;12.70;98.50;;;;;;4994727;28;20467;-74
2021/10/26 05:24:43;;;;;;;29.45;13.43;;;12.60;98.40;;;;;;5010414;28;20022;-74
2021/10/26 05:27:10;;;;;;;23.70;11.73;;;12.70;98.40;;;;;;5009829;28;20123;-74
2021/10/26 05:29:39;;;;;;;25.05;12.35;;;12.60;98.40;;;;;;5010349;28;20604;-74
2021/10/26 05:32:06;;;;;;;24.05;12.13;;;12.70;98.50;;;;;;4994662;28;20451;-74
2021/10/26 05:34:32;;;;;;;25.13;12.70;;;12.60;98.40;;;;;;5010279;28;20106;-74
2021/10/26 05:36:58;;;;;;;29.55;13.75;;;12.60;98.40;;;;;;4995113;28;20026;-74
2021/10/26 05:39:24;;;;;;;25.90;12.18;;;12.70;98.40;;;;;;5009250;28;20046;-74
2021/10/26 05:41:50;;;;;;;27.55;12.98;;;12.70;98.40;;;;;;4995286;28;20038;-74
2021/10/26 05:44:15;;;;;;;28.02;12.30;;;12.70;98.40;;;;;;4994217;28;20030;-74
2021/10/26 05:46:41;;;;;;;31.15;13.73;;;12.70;98.40;;;;;;5010028;28;20030;-74
2021/10/26 05:49:06;;;;;;;20.10;10.00;;;12.60;98.40;;;;;;5009527;28;20019;-74
2021/10/26 05:51:32;;;;;;;26.83;13.68;;;12.60;98.40;;;;;;5009969;28;20459;-74
2021/10/26 05:53:58;;;;;;;27.63;13.13;;;12.60;98.40;;;;;;5009872;28;20473;-74
2021/10/26 05:56:24;;;;;;;29.35;13.70;;;12.60;98.50;;;;;;4994045;28;20440;-74
2021/10/26 05:58:53;;;;;;;30.67;13.07;;;12.60;98.60;;;;;;4994700;28;20094;-74
2021/10/26 06:01:20;;;;;;;27.33;12.75;;;12.50;98.50;;;;;;5008878;28;20431;-74
2021/10/26 06:03:46;;;;;;;32.58;14.07;;;12.50;98.50;;;;;;4994647;28;20026;-74
2021/10/26 06:06:12;;;;;;;31.33;15.13;;;12.50;98.50;;;;;;5009034;28;20358;-74
2021/10/26 06:08:38;;;;;;;27.17;11.60;;;12.50;98.50;;;;;;5009562;28;20437;-74
2021/10/26 06:11:10;;;;;;;26.77;12.88;;;12.50;98.50;;;;;;4993149;28;20073;-75
2021/10/26 06:13:39;;;;;;;27.42;12.75;;;12.50;98.50;;;;;;4994178;28;20027;-74
2021/10/26 06:16:05;;;;;;;23.42;11.65;;;12.50;98.50;;;;;;4993849;28;20054;-74
2021/10/26 06:18:31;;;;;;;26.30;12.82;;;12.50;98.50;;;;;;5009497;28;20116;-74
2021/10/26 06:20:57;;;;;;;25.25;12.77;;;12.50;98.50;;;;;;4994508;28;20470;-74
2021/10/26 06:23:23;;;;;;;28.73;13.10;;;12.50;98.40;;;;;;5008578;28;20031;-74
2021/10/26 06:25:49;;;;;;;25.85;12.35;;;12.60;98.40;;;;;;5009312;28;20350;-73
2021/10/26 06:28:15;;;;;;;31.90;13.43;;;12.50;98.40;;;;;;5008530;28;20477;-74
2021/10/26 06:30:42;;;;;;;21.48;10.32;;;12.50;98.50;;;;;;4994566;28;20068;-74
2021/10/26 06:33:08;;;;;;;27.95;12.48;;;12.50;98.50;;;;;;5008372;28;20121;-75
2021/10/26 06:35:34;;;;;;;27.98;13.35;;;12.50;98.50;;;;;;5009209;28;20029;-74
2021/10/26 06:37:59;;;;;;;27.73;13.57;;;12.50;98.50;;;;;;4993845;28;20018;-74
2021/10/26 06:40:25;;;;;;;29.60;14.30;;;12.60;98.50;;;;;;4993445;28;20026;-74
2021/10/26 06:42:51;;;;;;;31.23;14.07;;;12.60;98.40;;;;;;4994001;28;20159;-74
2021/10/26 06:45:17;;;;;;;31.08;13.48;;;12.50;98.40;;;;;;5008153;28;20062;-74
2021/10/26 06:47:43;;;;;;;28.83;13.48;;;12.50;98.40;;;;;;4993921;28;20057;-74
2021/10/26 06:50:09;;;;;;;35.33;14.90;;;12.50;98.50;;;;;;4992920;28;20018;-74
2021/10/26 06:52:36;;;;;;;24.45;12.40;;;12.50;98.50;;;;;;4993724;28;20045;-73
2021/10/26 06:55:05;;;;;;;25.10;12.70;;;12.50;98.50;;;;;;5008627;28;20355;-74
2021/10/26 06:57:30;;;;;;;22.67;10.85;;;12.50;98.50;;;;;;5008185;28;20033;-74
2021/10/26 06:59:57;;;;;;;26.67;12.88;;;12.60;98.50;;;;;;5008511;28;20381;-73
2021/10/26 07:02:23;;;;;;;28.15;14.02;;;12.60;98.50;;;;;;5007799;28;20419;-74
2021/10/26 07:04:48;;;;;;;29.58;13.73;;;12.60;98.70;;;;;;4993508;28;20022;-74
2021/10/26 07:07:14;;;;;;;31.33;13.02;;;12.60;98.40;;;;;;4992716;28;20023;-74
2021/10/26 07:09:40;;;;;;;26.52;13.15;;;12.60;98.40;;;;;;4993228;28;20041;-74
2021/10/26 07:12:06;;;;;;;32.33;13.93;;;12.70;98.40;;;;;;5008317;28;20033;-75
2021/10/26 07:14:32;;;;;;;29.98;13.68;;;12.60;98.40;;;;;;4992976;28;20076;-74
2021/10/26 07:16:58;;;;;;;26.55;11.55;;;12.60;98.40;;;;;;5008071;28;20018;-74
2021/10/26 07:19:23;;;;;;;26.52;11.82;;;12.60;98.40;;;;;;4992523;28;20033;-74
2021/10/26 07:21:50;;;;;;;27.23;12.90;;;12.70;98.40;;;;;;5007959;28;20025;-74
2021/10/26 07:24:15;;;;;;;28.95;13.50;;;12.70;98.40;;;;;;5007399;28;20089;-74
2021/10/26 07:26:41;;;;;;;22.75;10.20;;;12.70;98.40;;;;;;4993115;28;20452;-74
2021/10/26 07:29:07;;;;;;;31.70;13.38;;;12.70;98.60;;;;;;4993031;28;20029;-74
2021/10/26 07:31:33;;;;;;;25.25;11.50;;;12.70;98.30;;;;;;4993031;28;20023;-73
2021/10/26 07:34:00;;;;;;;26.45;12.10;;;12.70;98.40;;;;;;5007840;28;20076;-74
2021/10/26 07:36:50;;;;;;;35.47;13.38;;;12.70;98.30;;;;;;4992311;28;20014;-74
2021/10/26 07:39:48;;;;;;;30.40;13.43;;;12.70;98.40;;;;;;4992005;28;20474;-74
2021/10/26 07:42:05;;;;;;;30.60;14.23;;;12.70;98.30;;;;;;4994181;28;20073;-74
2021/10/26 07:44:33;;;;;;;31.02;13.15;;;12.70;98.30;;;;;;4991819;28;20478;-74
2021/10/26 07:47:02;;;;;;;37.45;14.25;;;12.70;98.30;;;;;;4993198;28;20022;-74
2021/10/26 07:49:29;;;;;;;32.03;13.45;;;12.70;98.30;;;;;;5007155;28;20010;-74
2021/10/26 07:51:55;;;;;;;26.75;11.52;;;12.80;98.40;;;;;;5007790;28;20018;-74
2021/10/26 07:54:22;;;;;;;32.35;12.63;;;12.80;98.30;;;;;;4992056;28;20059;-74
2021/10/26 07:56:48;;;;;;;31.88;13.50;;;12.80;98.50;;;;;;4992664;28;20086;-74
2021/10/26 07:59:13;;;;;;;27.58;12.23;;;12.80;98.30;;;;;;4992124;28;20363;-74
2021/10/26 08:01:40;;;;;;;29.70;12.90;;;12.80;98.30;;;;;;4992937;28;20472;-75
2021/10/26 08:04:06;;;;;;;23.95;11.85;;;12.80;98.30;;;;;;5007685;28;20018;-75
2021/10/26 08:06:32;;;;;;;30.17;12.10;;;12.80;98.30;;;;;;4992289;28;20041;-75
2021/10/26 08:08:57;;;;;;;32.15;13.43;;;12.90;98.30;;;;;;4992760;28;20370;-75
2021/10/26 08:11:25;;;;;;;30.00;12.98;;;12.90;98.20;;;;;;5007085;28;20033;-74
2021/10/26 08:13:51;;;;;;;29.63;12.55;;;12.90;98.20;;;;;;4992667;28;20022;-74
2021/10/26 08:16:16;;;;;;;28.70;11.93;;;13.00;98.20;;;;;;4991583;28;20022;-74
2021/10/26 08:18:45;;;;;;;19.65;8.68;;;13.00;98.10;;;;;;5007640;28;20041;-75
2021/10/26 08:21:13;;;;;;;27.38;11.65;;;13.00;98.10;;;;;;4992534;28;20125;-74
2021/10/26 08:23:41;;;;;;;31.27;13.82;;;13.10;98.00;;;;;;5007411;28;20034;-74
2021/10/26 08:26:11;;;;;;;29.02;11.02;;;13.10;97.90;;;;;;4992405;28;20018;-74
2021/10/26 08:28:37;;;;;;;32.10;12.68;;;13.10;97.90;;;;;;5007493;28;20026;-75
2021/10/26 08:31:14;;;;;;;30.70;12.60;;;13.10;97.80;;;;;;5007321;28;20019;-73
2021/10/26 08:33:52;;;;;;;31.20;11.85;;;13.10;97.80;;;;;;4992419;28;20086;-74
2021/10/26 08:36:18;;;;;;;24.33;10.98;;;13.10;97.80;;;;;;5009543;28;20026;-74
2021/10/26 08:38:44;;;;;;;23.55;10.75;;;13.10;97.80;;;;;;5010907;28;20058;-74
2021/10/26 08:41:11;;;;;;;29.40;11.23;;;13.20;97.80;;;;;;5011150;28;20312;-74
2021/10/26 08:43:37;;;;;;;22.48;11.07;;;13.20;97.80;;;;;;4995556;28;20030;-74
2021/10/26 08:46:08;;;;;;;35.65;14.73;;;13.20;97.70;;;;;;5011098;28;20566;-73
2021/10/26 08:48:40;;;;;;;24.80;11.00;;;13.30;97.60;;;;;;4995577;28;20089;-74
2021/10/26 08:51:05;;;;;;;28.15;10.77;;;13.30;97.60;;;;;;4996129;28;20423;-73
2021/10/26 08:53:32;;;;;;;29.33;12.60;;;13.30;97.50;;;;;;5010240;28;20065;-74
2021/10/26 08:56:00;;;;;;;28.80;11.45;;;13.40;97.40;;;;;;4995563;28;20375;-74
2021/10/26 08:58:31;;;;;;;27.55;11.45;;;13.30;97.40;;;;;;5010367;28;20165;-74
2021/10/26 09:00:58;;;;;;;;;;;13.40;97.50;;;;;;4996170;28;20057;-74
2021/10/26 09:03:29;;;;;;;27.73;11.45;;;13.40;97.40;;;;;;5009806;28;19910;-74
2021/10/26 09:05:55;;;;;;;23.50;9.27;;;13.40;97.20;;;;;;4995802;28;20435;-74
2021/10/26 09:08:26;;;;;;;27.13;10.38;;;13.40;97.30;;;;;;4995091;28;20076;-74
2021/10/26 09:10:52;;;;;;;26.17;10.50;;;13.40;97.20;;;;;;4995813;28;20557;-73
2021/10/26 09:16:42;;;;;;;24.70;9.23;;;13.50;97.30;;;;;;4995582;28;20042;-74
2021/10/26 09:19:19;;;;;;;23.33;10.35;;;13.50;97.30;;;;;;4995667;28;20011;-74
2021/10/26 09:22:15;;;;;;;23.25;10.55;;;13.50;97.30;;;;;;5010720;28;20073;-74
2021/10/26 09:24:54;;;;;;;26.17;11.70;;;13.60;97.30;;;;;;4998266;28;20119;-74
2021/10/26 09:27:21;;;;;;;30.85;12.25;;;13.60;97.20;;;;;;4994921;28;20026;-74
2021/10/26 09:29:48;;;;;;;32.63;12.23;;;13.60;97.10;;;;;;4995774;28;20172;-74
2021/10/26 09:32:24;;;;;;;25.50;10.43;;;13.60;97.00;;;;;;4995207;28;20528;-74
2021/10/26 09:34:59;;;;;;;28.02;12.48;;;13.70;97.00;;;;;;4995414;28;20121;-74
2021/10/26 09:37:31;;;;;;;38.90;13.85;;;13.70;96.80;;;;;;4994638;28;20057;-74
2021/10/26 09:39:58;;;;;;;28.02;13.98;;;13.80;96.80;;;;;;4994852;28;20096;-74
2021/10/26 09:42:25;;;;;;;27.02;11.45;;;13.80;96.70;;;;;;5009464;28;20455;-74
2021/10/26 09:44:56;;;;;;;28.38;11.88;;;13.90;96.60;;;;;;4995081;28;20054;-74
2021/10/26 09:47:27;;;;;;;24.60;10.55;;;13.90;96.60;;;;;;4993170;28;20048;-74
2021/10/26 09:50:01;;;;;;;22.33;10.13;;;13.90;96.60;;;;;;4995016;28;20498;-74
2021/10/26 09:52:30;;;;;;;23.58;10.35;;;13.90;96.60;;;;;;4994215;28;20058;-74
2021/10/26 09:55:02;;;;;;;24.13;11.02;;;14.00;96.60;;;;;;4994932;28;20129;-75
2021/10/26 09:57:37;;;;;;;23.45;9.55;;;14.00;96.60;;;;;;4994236;28;20029;-74
2021/10/26 10:00:07;;;;;;;26.42;10.70;;;13.90;96.60;;;;;;5009902;28;20386;-74
2021/10/26 10:02:34;;;;;;;22.90;10.15;;;13.90;96.60;;;;;;5009257;28;20026;-74
2021/10/26 10:05:02;;;;;;;19.63;10.27;;;13.90;96.60;;;;;;5009685;28;20022;-74
2021/10/26 10:07:36;;;;;;;22.88;9.10;;;13.80;96.50;;;;;;5008977;28;20062;-74
2021/10/26 10:10:09;;;;;;;15.52;8.10;;;13.80;96.50;;;;;;4994669;28;20077;-74
2021/10/26 10:12:36;;;;;;;17.85;7.93;;;13.80;96.50;;;;;;4993978;28;20026;-74
2021/10/26 10:15:05;;;;;;;14.82;7.57;;;13.90;96.50;;;;;;4994462;28;20025;-74
2021/10/26 10:17:33;;;;;;;21.60;9.20;;;13.90;96.50;;;;;;4993730;28;20105;-74
2021/10/26 10:19:59;;;;;;;14.68;7.88;;;13.90;96.20;;;;;;5009446;28;20058;-74
2021/10/26 10:22:28;;;;;;;18.55;7.70;;;13.80;96.20;;;;;;5008779;28;20061;-74
2021/10/26 10:24:57;;;;;;;13.68;7.25;;;13.90;96.30;;;;;;4994473;28;20046;-74
2021/10/26 10:27:33;;;;;;;18.95;8.27;;;14.00;96.10;;;;;;4993642;28;20144;-74
2021/10/26 10:29:59;;;;;;;14.38;7.60;;;14.00;95.90;;;;;;4994216;28;20100;-73
2021/10/26 10:32:28;;;;;;;17.88;7.38;;;14.00;96.00;;;;;;5008152;28;20029;-74
2021/10/26 10:34:57;;;;;;;14.65;8.30;;;14.00;96.00;;;;;;5009365;28;20018;-73
2021/10/26 10:37:29;;;;;;;13.73;6.68;;;14.00;96.00;;;;;;4993395;28;20022;-74
2021/10/26 10:40:04;;;;;;;15.57;7.38;;;14.00;96.00;;;;;;5008881;28;20045;-75
2021/10/26 10:42:31;;;;;;;15.23;6.43;;;14.00;96.00;;;;;;4993267;28;20026;-73
2021/10/26 10:44:59;;;;;;;14.45;6.70;;;14.00;95.90;;;;;;5008903;28;20026;-75
2021/10/26 10:47:47;;;;;;;16.95;8.07;;;14.00;95.90;;;;;;4993229;28;20114;-74
2021/10/26 10:50:34;;;;;;;16.00;7.50;;;14.00;95.90;;;;;;4993822;28;20032;-73
2021/10/26 10:53:15;;;;;;;14.45;6.47;;;14.10;95.90;;;;;;4993719;28;20022;-74
2021/10/26 10:55:51;;;;;;;11.57;6.18;;;14.10;95.80;;;;;;5008004;28;20018;-74
2021/10/26 10:58:24;;;;;;;15.57;6.32;;;14.10;95.80;;;;;;4992797;28;20118;-74
2021/10/26 11:00:53;;;;;;;14.75;7.18;;;14.20;95.80;;;;;;4993212;28;20018;-74
2021/10/26 11:03:30;;;;;;;14.60;7.07;;;14.20;95.80;;;;;;5008451;28;20467;-74
2021/10/26 11:05:56;;;;;;;15.70;7.40;;;14.20;95.80;;;;;;4993358;28;20040;-74
2021/10/26 11:08:47;;;;;;;14.68;7.00;;;14.20;95.80;;;;;;4993109;28;20022;-74
2021/10/26 11:11:16;;;;;;;14.80;6.70;;;14.20;96.00;;;;;;4993349;28;20014;-74
2021/10/26 11:13:42;;;;;;;13.82;6.45;;;14.20;95.90;;;;;;5007789;28;20033;-73
2021/10/26 11:16:10;;;;;;;17.27;7.43;;;14.20;95.90;;;;;;4993332;28;20018;-73
2021/10/26 11:18:47;;;;;;;11.10;5.30;;;14.30;95.90;;;;;;4992705;28;20026;-73
2021/10/26 11:21:22;;;;;;;17.52;7.35;;;14.30;95.90;;;;;;4993238;28;20097;-73
2021/10/26 11:23:50;;;;;;;15.73;7.00;;;14.30;95.90;;;;;;5007566;28;20096;-73
2021/10/26 11:26:30;;;;;;;14.70;7.20;;;14.20;96.00;;;;;;5008172;28;20023;-74
2021/10/26 11:28:59;;;;;;;13.82;7.43;;;14.20;96.10;;;;;;5008361;28;20045;-74
2021/10/26 11:31:27;;;;;;;16.92;7.30;;;14.20;96.20;;;;;;5007803;28;20019;-75
2021/10/26 11:33:59;;;;;;;18.63;7.38;;;14.10;96.20;;;;;;4993034;28;20027;-74
2021/10/26 11:36:33;;;;;;;13.40;7.20;;;14.10;96.30;;;;;;4993083;28;20090;-74
2021/10/26 11:39:02;;;;;;;19.52;8.25;;;14.20;96.30;;;;;;5007754;28;20176;-74
2021/10/26 11:41:33;;;;;;;14.05;6.63;;;14.20;96.20;;;;;;5007370;28;20022;-74
2021/10/26 11:44:02;;;;;;;18.35;9.10;;;14.30;96.20;;;;;;4992770;28;20109;-74
2021/10/26 11:46:38;;;;;;;15.25;7.43;;;14.30;96.20;;;;;;5007276;28;20018;-75
2021/10/26 11:49:10;;;;;;;18.13;8.38;;;14.40;96.20;;;;;;4992920;28;20089;-74
2021/10/26 11:51:38;;;;;;;14.10;7.10;;;14.50;96.20;;;;;;5007446;28;20022;-75
2021/10/26 11:54:09;;;;;;;20.50;9.48;;;14.50;96.10;;;;;;5007913;28;20022;-74
2021/10/26 11:56:37;;;;;;;16.50;7.82;;;14.60;96.10;;;;;;5007298;28;20014;-75
2021/10/26 11:59:07;;;;;;;17.65;7.72;;;14.70;96.00;;;;;;5007961;28;20450;-74
2021/10/26 12:01:47;;;;;;;18.95;7.95;;;14.70;95.90;;;;;;5007213;28;20323;-74
2021/10/26 12:04:21;;;;;;;22.58;8.23;;;14.70;95.90;;;;;;4992821;28;20033;-76
2021/10/26 12:06:48;;;;;;;14.20;6.25;;;14.80;95.90;;;;;;4991974;28;20022;-75
2021/10/26 12:09:15;;;;;;;18.40;8.38;;;14.80;95.90;;;;;;5007078;28;20034;-75
2021/10/26 12:11:44;;;;;;;18.88;7.22;;;14.80;95.90;;;;;;4991827;28;20065;-74
2021/10/26 12:14:22;;;;;;;18.27;7.45;;;14.90;95.90;;;;;;4992526;28;20152;-74
2021/10/26 12:17:21;;;;;;;15.63;7.57;;;15.00;95.90;;;;;;4991897;28;20022;-74
2021/10/26 12:19:51;;;;;;;13.00;6.78;;;15.00;95.70;;;;;;5007267;28;20434;-74
2021/10/26 12:22:26;;;;;;;11.88;6.30;;;15.00;95.50;;;;;;4992346;28;20031;-74
2021/10/26 12:24:59;;;;;;;14.10;7.00;;;15.00;95.50;;;;;;4991957;28;20021;-74
2021/10/26 12:27:27;;;;;;;14.00;6.38;;;15.00;95.60;;;;;;5007442;28;20455;-74
2021/10/26 12:29:53;;;;;;;12.02;5.97;;;14.90;95.60;;;;;;4991773;28;20145;-74
2021/10/26 12:32:21;;;;;;;10.25;5.28;;;15.00;95.70;;;;;;5007519;28;20026;-74
2021/10/26 12:34:49;;;;;;;14.00;6.10;;;15.00;95.70;;;;;;4991264;28;20463;-74
2021/10/26 12:37:35;;;;;;;11.40;4.70;;;15.00;95.60;;;;;;4992399;28;20049;-75